sensor_id;sensor_type;location;lat;lon;timestamp;pressure;altitude;pressure_sealevel;temperature;humidity
66801;BME280;53703;50.326;19.122;2023-12-28T00:02:15;98950.62;;;18.93;44.59
66801;BME280;53703;50.326;19.122;2023-12-28T00:04:49;98950.27;;;18.91;44.62
66801;BME280;53703;50.326;19.122;2023-12-28T00:07:22;98946.23;;;18.94;44.79
66801;BME280;53703;50.326;19.122;2023-12-28T00:09:56;98949.58;;;18.95;44.49
66801;BME280;53703;50.326;19.122;2023-12-28T00:12:29;98942.23;;;18.93;44.58
66801;BME280;53703;50.326;19.122;2023-12-28T00:15:04;98939.39;;;18.98;44.76
66801;BME280;53703;50.326;19.122;2023-12-28T00:17:37;98945.83;;;18.89;44.73
66801;BME280;53703;50.326;19.122;2023-12-28T00:20:14;98938.27;;;18.92;44.69
66801;BME280;53703;50.326;19.122;2023-12-28T00:22:48;98933.67;;;18.86;44.64
66801;BME280;53703;50.326;19.122;2023-12-28T00:25:22;98928.64;;;18.86;44.49
66801;BME280;53703;50.326;19.122;2023-12-28T00:27:57;98926.30;;;18.88;44.43
66801;BME280;53703;50.326;19.122;2023-12-28T00:30:31;98911.58;;;18.87;44.43
66801;BME280;53703;50.326;19.122;2023-12-28T00:33:05;98914.39;;;18.89;44.34
66801;BME280;53703;50.326;19.122;2023-12-28T00:35:41;98910.02;;;18.91;44.20
66801;BME280;53703;50.326;19.122;2023-12-28T00:38:18;98905.94;;;18.89;44.18
66801;BME280;53703;50.326;19.122;2023-12-28T00:40:51;98899.04;;;18.85;44.14
66801;BME280;53703;50.326;19.122;2023-12-28T00:43:25;98892.06;;;18.87;44.24
66801;BME280;53703;50.326;19.122;2023-12-28T00:45:59;98888.60;;;18.87;44.34
66801;BME280;53703;50.326;19.122;2023-12-28T00:48:33;98890.00;;;18.90;44.18
66801;BME280;53703;50.326;19.122;2023-12-28T00:51:07;98889.17;;;18.85;44.28
66801;BME280;53703;50.326;19.122;2023-12-28T00:53:41;98889.88;;;18.88;44.11
66801;BME280;53703;50.326;19.122;2023-12-28T00:56:15;98889.26;;;18.89;44.24
66801;BME280;53703;50.326;19.122;2023-12-28T00:58:49;98889.05;;;18.92;44.31
66801;BME280;53703;50.326;19.122;2023-12-28T01:01:23;98885.15;;;18.94;44.01
66801;BME280;53703;50.326;19.122;2023-12-28T01:03:57;98884.01;;;18.95;43.98
66801;BME280;53703;50.326;19.122;2023-12-28T01:06:31;98886.48;;;18.94;44.06
66801;BME280;53703;50.326;19.122;2023-12-28T01:09:07;98886.86;;;18.96;43.83
66801;BME280;53703;50.326;19.122;2023-12-28T01:11:40;98886.16;;;18.93;44.07
66801;BME280;53703;50.326;19.122;2023-12-28T01:14:14;98881.86;;;18.98;43.94
66801;BME280;53703;50.326;19.122;2023-12-28T01:16:47;98879.27;;;18.98;43.81
66801;BME280;53703;50.326;19.122;2023-12-28T01:19:21;98879.31;;;18.94;43.82
66801;BME280;53703;50.326;19.122;2023-12-28T01:21:55;98875.91;;;18.94;43.93
66801;BME280;53703;50.326;19.122;2023-12-28T01:24:29;98877.45;;;18.95;43.81
66801;BME280;53703;50.326;19.122;2023-12-28T01:27:03;98872.35;;;18.94;43.75
66801;BME280;53703;50.326;19.122;2023-12-28T01:29:37;98858.64;;;18.98;43.66
66801;BME280;53703;50.326;19.122;2023-12-28T01:32:11;98859.36;;;18.98;43.64
66801;BME280;53703;50.326;19.122;2023-12-28T01:34:45;98860.79;;;18.96;43.67
66801;BME280;53703;50.326;19.122;2023-12-28T01:37:18;98855.87;;;18.98;43.59
66801;BME280;53703;50.326;19.122;2023-12-28T01:39:52;98854.91;;;18.98;43.61
66801;BME280;53703;50.326;19.122;2023-12-28T01:42:25;98861.94;;;18.97;43.69
66801;BME280;53703;50.326;19.122;2023-12-28T01:44:59;98856.05;;;18.96;43.59
66801;BME280;53703;50.326;19.122;2023-12-28T01:47:33;98853.25;;;18.95;43.69
66801;BME280;53703;50.326;19.122;2023-12-28T01:50:08;98855.58;;;18.93;43.50
66801;BME280;53703;50.326;19.122;2023-12-28T01:52:42;98849.37;;;18.89;43.57
66801;BME280;53703;50.326;19.122;2023-12-28T01:55:16;98849.43;;;18.91;43.35
66801;BME280;53703;50.326;19.122;2023-12-28T01:57:50;98839.20;;;18.93;43.49
66801;BME280;53703;50.326;19.122;2023-12-28T02:00:25;98840.38;;;18.92;43.62
66801;BME280;53703;50.326;19.122;2023-12-28T02:02:59;98833.79;;;18.91;43.36
66801;BME280;53703;50.326;19.122;2023-12-28T02:05:33;98828.27;;;18.92;43.42
66801;BME280;53703;50.326;19.122;2023-12-28T02:08:08;98827.41;;;18.92;43.33
66801;BME280;53703;50.326;19.122;2023-12-28T02:10:41;98818.38;;;18.91;43.45
66801;BME280;53703;50.326;19.122;2023-12-28T02:13:15;98825.17;;;18.88;43.56
66801;BME280;53703;50.326;19.122;2023-12-28T02:16:06;98829.02;;;18.90;43.55
66801;BME280;53703;50.326;19.122;2023-12-28T02:18:46;98822.13;;;18.87;43.47
66801;BME280;53703;50.326;19.122;2023-12-28T02:21:21;98816.04;;;18.92;43.36
66801;BME280;53703;50.326;19.122;2023-12-28T02:23:55;98817.60;;;18.91;43.56
66801;BME280;53703;50.326;19.122;2023-12-28T02:26:28;98819.86;;;18.93;43.39
66801;BME280;53703;50.326;19.122;2023-12-28T02:29:02;98817.72;;;18.98;43.38
66801;BME280;53703;50.326;19.122;2023-12-28T02:31:43;98814.80;;;18.96;43.38
66801;BME280;53703;50.326;19.122;2023-12-28T02:34:25;98818.71;;;18.95;43.49
66801;BME280;53703;50.326;19.122;2023-12-28T02:37:02;98814.54;;;18.92;43.50
66801;BME280;53703;50.326;19.122;2023-12-28T02:39:37;98814.29;;;18.97;43.35
66801;BME280;53703;50.326;19.122;2023-12-28T02:42:11;98814.74;;;18.94;43.42
66801;BME280;53703;50.326;19.122;2023-12-28T02:44:45;98810.55;;;18.93;43.42
66801;BME280;53703;50.326;19.122;2023-12-28T02:47:18;98809.91;;;18.93;43.45
66801;BME280;53703;50.326;19.122;2023-12-28T02:49:51;98809.00;;;18.97;43.27
66801;BME280;53703;50.326;19.122;2023-12-28T02:52:25;98808.20;;;18.97;43.39
66801;BME280;53703;50.326;19.122;2023-12-28T02:54:58;98798.75;;;18.95;43.32
66801;BME280;53703;50.326;19.122;2023-12-28T02:57:32;98798.05;;;18.96;43.24
66801;BME280;53703;50.326;19.122;2023-12-28T03:00:12;98793.20;;;18.98;43.40
66801;BME280;53703;50.326;19.122;2023-12-28T03:02:45;98793.41;;;18.97;43.39
66801;BME280;53703;50.326;19.122;2023-12-28T03:05:19;98789.20;;;18.96;43.22
66801;BME280;53703;50.326;19.122;2023-12-28T03:07:52;98784.83;;;18.92;43.53
66801;BME280;53703;50.326;19.122;2023-12-28T03:10:28;98783.12;;;18.93;43.28
66801;BME280;53703;50.326;19.122;2023-12-28T03:13:02;98786.67;;;18.99;43.26
66801;BME280;53703;50.326;19.122;2023-12-28T03:15:35;98779.02;;;18.96;43.42
66801;BME280;53703;50.326;19.122;2023-12-28T03:18:09;98774.32;;;18.95;43.24
66801;BME280;53703;50.326;19.122;2023-12-28T03:20:42;98767.80;;;18.93;43.27
66801;BME280;53703;50.326;19.122;2023-12-28T03:23:16;98764.90;;;18.92;43.31
66801;BME280;53703;50.326;19.122;2023-12-28T03:25:49;98763.20;;;18.93;43.33
66801;BME280;53703;50.326;19.122;2023-12-28T03:28:23;98762.88;;;18.92;43.41
66801;BME280;53703;50.326;19.122;2023-12-28T03:30:56;98763.10;;;18.92;43.36
66801;BME280;53703;50.326;19.122;2023-12-28T03:33:31;98763.40;;;18.92;43.18
66801;BME280;53703;50.326;19.122;2023-12-28T03:36:05;98756.27;;;18.91;43.30
66801;BME280;53703;50.326;19.122;2023-12-28T03:38:39;98746.17;;;18.89;43.36
66801;BME280;53703;50.326;19.122;2023-12-28T03:41:20;98735.41;;;18.91;43.28
66801;BME280;53703;50.326;19.122;2023-12-28T03:43:53;98733.29;;;18.91;43.33
66801;BME280;53703;50.326;19.122;2023-12-28T03:46:26;98731.29;;;18.90;43.45
66801;BME280;53703;50.326;19.122;2023-12-28T03:49:00;98725.10;;;18.92;43.42
66801;BME280;53703;50.326;19.122;2023-12-28T03:51:33;98721.66;;;18.94;43.18
66801;BME280;53703;50.326;19.122;2023-12-28T03:54:07;98725.60;;;18.93;43.36
66801;BME280;53703;50.326;19.122;2023-12-28T03:56:40;98735.77;;;18.95;43.39
66801;BME280;53703;50.326;19.122;2023-12-28T03:59:15;98742.73;;;18.96;43.13
66801;BME280;53703;50.326;19.122;2023-12-28T04:01:49;98760.62;;;18.96;43.37
66801;BME280;53703;50.326;19.122;2023-12-28T04:04:22;98775.69;;;18.96;43.36
66801;BME280;53703;50.326;19.122;2023-12-28T04:06:55;98776.19;;;18.94;43.39
66801;BME280;53703;50.326;19.122;2023-12-28T04:09:29;98787.41;;;18.94;43.30
66801;BME280;53703;50.326;19.122;2023-12-28T04:12:03;98784.94;;;18.96;43.33
66801;BME280;53703;50.326;19.122;2023-12-28T04:14:36;98779.46;;;18.92;43.41
66801;BME280;53703;50.326;19.122;2023-12-28T04:17:10;98772.71;;;18.91;43.37
66801;BME280;53703;50.326;19.122;2023-12-28T04:19:43;98770.33;;;18.94;43.34
66801;BME280;53703;50.326;19.122;2023-12-28T04:22:17;98763.73;;;18.92;43.40
66801;BME280;53703;50.326;19.122;2023-12-28T04:24:50;98765.40;;;18.95;43.24
66801;BME280;53703;50.326;19.122;2023-12-28T04:27:24;98773.34;;;18.91;43.19
66801;BME280;53703;50.326;19.122;2023-12-28T04:29:57;98771.33;;;18.93;43.25
66801;BME280;53703;50.326;19.122;2023-12-28T04:32:31;98779.02;;;18.94;43.13
66801;BME280;53703;50.326;19.122;2023-12-28T04:35:05;98790.80;;;18.91;43.36
66801;BME280;53703;50.326;19.122;2023-12-28T04:37:38;98788.59;;;18.94;43.23
66801;BME280;53703;50.326;19.122;2023-12-28T04:40:13;98789.07;;;18.94;43.27
66801;BME280;53703;50.326;19.122;2023-12-28T04:42:47;98785.17;;;18.91;43.05
66801;BME280;53703;50.326;19.122;2023-12-28T04:45:20;98779.92;;;18.89;43.11
66801;BME280;53703;50.326;19.122;2023-12-28T04:47:54;98777.85;;;18.91;43.00
66801;BME280;53703;50.326;19.122;2023-12-28T04:50:28;98773.56;;;18.87;43.12
66801;BME280;53703;50.326;19.122;2023-12-28T04:53:02;98769.46;;;18.88;43.14
66801;BME280;53703;50.326;19.122;2023-12-28T04:55:36;98757.80;;;18.86;43.16
66801;BME280;53703;50.326;19.122;2023-12-28T04:58:09;98753.91;;;18.88;43.08
66801;BME280;53703;50.326;19.122;2023-12-28T05:00:43;98755.74;;;18.85;43.08
66801;BME280;53703;50.326;19.122;2023-12-28T05:03:16;98757.47;;;18.85;42.99
66801;BME280;53703;50.326;19.122;2023-12-28T05:05:50;98764.70;;;18.86;43.08
66801;BME280;53703;50.326;19.122;2023-12-28T05:08:23;98766.48;;;18.85;42.98
66801;BME280;53703;50.326;19.122;2023-12-28T05:10:57;98764.57;;;18.84;42.95
66801;BME280;53703;50.326;19.122;2023-12-28T05:13:31;98755.36;;;18.86;42.87
66801;BME280;53703;50.326;19.122;2023-12-28T05:16:07;98759.62;;;18.86;43.02
66801;BME280;53703;50.326;19.122;2023-12-28T05:18:40;98757.91;;;18.84;43.03
66801;BME280;53703;50.326;19.122;2023-12-28T05:21:14;98758.77;;;18.84;42.98
66801;BME280;53703;50.326;19.122;2023-12-28T05:23:48;98751.05;;;18.82;43.00
66801;BME280;53703;50.326;19.122;2023-12-28T05:26:21;98752.44;;;18.80;42.96
66801;BME280;53703;50.326;19.122;2023-12-28T05:28:55;98750.79;;;18.83;43.02
66801;BME280;53703;50.326;19.122;2023-12-28T05:31:28;98748.81;;;18.83;42.88
66801;BME280;53703;50.326;19.122;2023-12-28T05:34:02;98741.48;;;18.84;43.14
66801;BME280;53703;50.326;19.122;2023-12-28T05:36:40;98735.63;;;18.84;43.09
66801;BME280;53703;50.326;19.122;2023-12-28T05:39:14;98734.36;;;18.80;43.03
66801;BME280;53703;50.326;19.122;2023-12-28T05:41:48;98722.67;;;18.84;42.86
66801;BME280;53703;50.326;19.122;2023-12-28T05:44:22;98710.76;;;18.81;43.00
66801;BME280;53703;50.326;19.122;2023-12-28T05:46:56;98711.24;;;18.81;42.99
66801;BME280;53703;50.326;19.122;2023-12-28T05:49:30;98712.20;;;18.82;42.85
66801;BME280;53703;50.326;19.122;2023-12-28T05:52:04;98717.09;;;18.82;42.98
66801;BME280;53703;50.326;19.122;2023-12-28T05:54:37;98723.46;;;18.84;42.78
66801;BME280;53703;50.326;19.122;2023-12-28T05:57:11;98721.28;;;18.82;42.91
66801;BME280;53703;50.326;19.122;2023-12-28T05:59:45;98713.48;;;18.83;42.91
66801;BME280;53703;50.326;19.122;2023-12-28T06:02:18;98701.88;;;18.83;42.80
66801;BME280;53703;50.326;19.122;2023-12-28T06:04:52;98702.75;;;18.83;42.81
66801;BME280;53703;50.326;19.122;2023-12-28T06:07:26;98707.52;;;18.84;42.83
66801;BME280;53703;50.326;19.122;2023-12-28T06:09:59;98700.08;;;18.78;42.86
66801;BME280;53703;50.326;19.122;2023-12-28T06:12:33;98699.25;;;18.77;42.72
66801;BME280;53703;50.326;19.122;2023-12-28T06:15:09;98700.48;;;18.75;42.79
66801;BME280;53703;50.326;19.122;2023-12-28T06:17:42;98704.16;;;18.74;42.79
66801;BME280;53703;50.326;19.122;2023-12-28T06:20:16;98724.29;;;18.74;42.87
66801;BME280;53703;50.326;19.122;2023-12-28T06:22:50;98736.95;;;18.74;42.79
66801;BME280;53703;50.326;19.122;2023-12-28T06:25:23;98743.14;;;18.73;42.96
66801;BME280;53703;50.326;19.122;2023-12-28T06:27:57;98749.55;;;18.73;42.75
66801;BME280;53703;50.326;19.122;2023-12-28T06:30:31;98749.59;;;18.74;42.82
66801;BME280;53703;50.326;19.122;2023-12-28T06:33:05;98747.59;;;18.73;42.77
66801;BME280;53703;50.326;19.122;2023-12-28T06:35:40;98747.92;;;18.71;42.74
66801;BME280;53703;50.326;19.122;2023-12-28T06:38:13;98746.07;;;18.73;42.80
66801;BME280;53703;50.326;19.122;2023-12-28T06:40:47;98738.36;;;18.71;42.76
66801;BME280;53703;50.326;19.122;2023-12-28T06:43:20;98728.79;;;18.73;42.74
66801;BME280;53703;50.326;19.122;2023-12-28T06:45:54;98736.21;;;18.71;42.86
66801;BME280;53703;50.326;19.122;2023-12-28T06:48:28;98734.78;;;18.70;42.77
66801;BME280;53703;50.326;19.122;2023-12-28T06:51:02;98736.52;;;18.76;42.70
66801;BME280;53703;50.326;19.122;2023-12-28T06:53:36;98727.04;;;18.73;42.65
66801;BME280;53703;50.326;19.122;2023-12-28T06:56:10;98740.88;;;18.74;42.70
66801;BME280;53703;50.326;19.122;2023-12-28T06:58:44;98754.47;;;18.71;42.74
66801;BME280;53703;50.326;19.122;2023-12-28T07:01:18;98750.72;;;18.78;42.80
66801;BME280;53703;50.326;19.122;2023-12-28T07:03:51;98749.40;;;18.73;42.82
66801;BME280;53703;50.326;19.122;2023-12-28T07:06:25;98755.38;;;18.72;42.78
66801;BME280;53703;50.326;19.122;2023-12-28T07:08:58;98760.20;;;18.70;42.73
66801;BME280;53703;50.326;19.122;2023-12-28T07:11:32;98768.48;;;18.72;42.67
66801;BME280;53703;50.326;19.122;2023-12-28T07:14:06;98763.64;;;18.71;42.66
66801;BME280;53703;50.326;19.122;2023-12-28T07:16:39;98756.70;;;18.69;42.86
66801;BME280;53703;50.326;19.122;2023-12-28T07:19:13;98756.14;;;18.69;42.89
66801;BME280;53703;50.326;19.122;2023-12-28T07:21:46;98760.76;;;18.70;42.83
66801;BME280;53703;50.326;19.122;2023-12-28T07:24:20;98767.35;;;18.77;42.87
66801;BME280;53703;50.326;19.122;2023-12-28T07:26:54;98769.99;;;18.70;43.38
66801;BME280;53703;50.326;19.122;2023-12-28T07:29:27;98767.11;;;18.71;42.92
66801;BME280;53703;50.326;19.122;2023-12-28T07:32:01;98771.94;;;18.71;42.67
66801;BME280;53703;50.326;19.122;2023-12-28T07:34:36;98772.71;;;18.71;42.86
66801;BME280;53703;50.326;19.122;2023-12-28T07:37:10;98764.71;;;18.70;42.76
66801;BME280;53703;50.326;19.122;2023-12-28T07:39:43;98765.68;;;18.71;42.76
66801;BME280;53703;50.326;19.122;2023-12-28T07:42:17;98765.74;;;18.73;43.25
66801;BME280;53703;50.326;19.122;2023-12-28T07:44:51;98770.42;;;18.71;43.65
66801;BME280;53703;50.326;19.122;2023-12-28T07:47:24;98782.48;;;18.75;43.10
66801;BME280;53703;50.326;19.122;2023-12-28T07:49:59;98776.02;;;18.71;43.30
66801;BME280;53703;50.326;19.122;2023-12-28T07:52:33;98781.98;;;18.77;43.14
66801;BME280;53703;50.326;19.122;2023-12-28T07:55:07;98790.15;;;18.81;43.66
66801;BME280;53703;50.326;19.122;2023-12-28T07:57:40;98791.58;;;18.73;43.79
66801;BME280;53703;50.326;19.122;2023-12-28T08:00:15;98787.96;;;18.68;44.00
66801;BME280;53703;50.326;19.122;2023-12-28T08:02:49;98787.98;;;18.69;44.09
66801;BME280;53703;50.326;19.122;2023-12-28T08:05:22;98783.02;;;18.72;44.66
66801;BME280;53703;50.326;19.122;2023-12-28T08:07:56;98788.72;;;18.78;44.57
66801;BME280;53703;50.326;19.122;2023-12-28T08:10:29;98792.09;;;18.83;44.19
66801;BME280;53703;50.326;19.122;2023-12-28T08:13:03;98789.96;;;18.89;44.00
66801;BME280;53703;50.326;19.122;2023-12-28T08:15:36;98783.77;;;18.94;43.94
66801;BME280;53703;50.326;19.122;2023-12-28T08:18:10;98784.55;;;18.90;43.96
66801;BME280;53703;50.326;19.122;2023-12-28T08:20:45;98787.42;;;18.86;44.02
66801;BME280;53703;50.326;19.122;2023-12-28T08:23:18;98789.60;;;18.87;43.95
66801;BME280;53703;50.326;19.122;2023-12-28T08:25:52;98795.14;;;18.81;43.97
66801;BME280;53703;50.326;19.122;2023-12-28T08:28:25;98791.77;;;18.80;43.92
66801;BME280;53703;50.326;19.122;2023-12-28T08:31:00;98786.83;;;18.78;44.01
66801;BME280;53703;50.326;19.122;2023-12-28T08:33:33;98785.52;;;18.77;44.04
66801;BME280;53703;50.326;19.122;2023-12-28T08:36:09;98787.54;;;18.73;44.02
66801;BME280;53703;50.326;19.122;2023-12-28T08:38:43;98789.00;;;18.72;44.06
66801;BME280;53703;50.326;19.122;2023-12-28T08:41:24;98800.21;;;18.77;43.94
66801;BME280;53703;50.326;19.122;2023-12-28T08:43:59;98804.64;;;18.79;43.96
66801;BME280;53703;50.326;19.122;2023-12-28T08:46:33;98814.32;;;18.87;43.84
66801;BME280;53703;50.326;19.122;2023-12-28T08:49:09;98821.33;;;18.80;44.02
66801;BME280;53703;50.326;19.122;2023-12-28T08:51:45;98822.61;;;18.78;43.93
66801;BME280;53703;50.326;19.122;2023-12-28T08:54:19;98832.14;;;18.78;43.96
66801;BME280;53703;50.326;19.122;2023-12-28T08:56:53;98830.74;;;18.76;43.80
66801;BME280;53703;50.326;19.122;2023-12-28T08:59:51;98841.63;;;18.70;43.82
66801;BME280;53703;50.326;19.122;2023-12-28T09:02:31;98832.86;;;18.70;43.88
66801;BME280;53703;50.326;19.122;2023-12-28T09:05:12;98824.90;;;18.67;43.85
66801;BME280;53703;50.326;19.122;2023-12-28T09:07:46;98823.58;;;18.58;43.40
66801;BME280;53703;50.326;19.122;2023-12-28T09:10:20;98817.58;;;18.44;42.91
66801;BME280;53703;50.326;19.122;2023-12-28T09:12:53;98816.30;;;18.68;43.76
66801;BME280;53703;50.326;19.122;2023-12-28T09:15:27;98805.61;;;18.70;44.00
66801;BME280;53703;50.326;19.122;2023-12-28T09:18:00;98794.37;;;18.74;44.37
66801;BME280;53703;50.326;19.122;2023-12-28T09:20:34;98786.63;;;18.77;44.87
66801;BME280;53703;50.326;19.122;2023-12-28T09:23:08;98779.18;;;18.65;44.43
66801;BME280;53703;50.326;19.122;2023-12-28T09:25:42;98777.08;;;18.66;44.75
66801;BME280;53703;50.326;19.122;2023-12-28T09:28:16;98780.60;;;18.65;45.43
66801;BME280;53703;50.326;19.122;2023-12-28T09:30:49;98776.42;;;18.68;45.67
66801;BME280;53703;50.326;19.122;2023-12-28T09:33:23;98779.13;;;18.68;45.76
66801;BME280;53703;50.326;19.122;2023-12-28T09:35:57;98776.01;;;18.70;45.48
66801;BME280;53703;50.326;19.122;2023-12-28T09:38:30;98770.98;;;18.63;44.14
66801;BME280;53703;50.326;19.122;2023-12-28T09:41:11;98765.39;;;18.71;44.27
66801;BME280;53703;50.326;19.122;2023-12-28T09:43:54;98770.86;;;18.72;44.64
66801;BME280;53703;50.326;19.122;2023-12-28T09:46:31;98767.27;;;18.77;44.42
66801;BME280;53703;50.326;19.122;2023-12-28T09:49:06;98766.02;;;18.80;44.19
66801;BME280;53703;50.326;19.122;2023-12-28T09:51:40;98761.73;;;18.77;44.10
66801;BME280;53703;50.326;19.122;2023-12-28T09:54:13;98754.23;;;18.73;44.05
66801;BME280;53703;50.326;19.122;2023-12-28T09:56:47;98741.69;;;18.72;44.08
66801;BME280;53703;50.326;19.122;2023-12-28T09:59:21;98737.18;;;18.60;44.01
66801;BME280;53703;50.326;19.122;2023-12-28T10:01:56;98745.95;;;18.69;44.19
66801;BME280;53703;50.326;19.122;2023-12-28T10:04:30;98745.33;;;18.66;44.16
66801;BME280;53703;50.326;19.122;2023-12-28T10:07:05;98742.42;;;18.64;44.05
66801;BME280;53703;50.326;19.122;2023-12-28T10:09:38;98736.27;;;18.67;44.11
66801;BME280;53703;50.326;19.122;2023-12-28T10:12:12;98734.96;;;18.63;43.98
66801;BME280;53703;50.326;19.122;2023-12-28T10:14:46;98734.63;;;18.65;44.03
66801;BME280;53703;50.326;19.122;2023-12-28T10:17:19;98738.23;;;18.61;44.06
66801;BME280;53703;50.326;19.122;2023-12-28T10:19:53;98737.94;;;18.62;44.04
66801;BME280;53703;50.326;19.122;2023-12-28T10:22:28;98734.91;;;18.55;44.25
66801;BME280;53703;50.326;19.122;2023-12-28T10:25:03;98738.11;;;18.59;44.15
66801;BME280;53703;50.326;19.122;2023-12-28T10:27:41;98749.77;;;18.64;43.99
66801;BME280;53703;50.326;19.122;2023-12-28T10:30:15;98739.83;;;18.59;44.06
66801;BME280;53703;50.326;19.122;2023-12-28T10:32:49;98723.89;;;18.59;43.98
66801;BME280;53703;50.326;19.122;2023-12-28T10:35:23;98718.13;;;18.58;44.00
66801;BME280;53703;50.326;19.122;2023-12-28T10:38:01;98723.68;;;18.60;44.05
66801;BME280;53703;50.326;19.122;2023-12-28T10:40:34;98722.76;;;18.61;44.09
66801;BME280;53703;50.326;19.122;2023-12-28T10:43:11;98719.67;;;18.57;44.04
66801;BME280;53703;50.326;19.122;2023-12-28T10:45:47;98722.28;;;18.55;44.13
66801;BME280;53703;50.326;19.122;2023-12-28T10:48:30;98711.05;;;18.60;44.12
66801;BME280;53703;50.326;19.122;2023-12-28T10:51:08;98708.60;;;18.60;43.97
66801;BME280;53703;50.326;19.122;2023-12-28T10:53:51;98702.80;;;18.59;44.01
66801;BME280;53703;50.326;19.122;2023-12-28T10:56:33;98704.79;;;18.56;44.16
66801;BME280;53703;50.326;19.122;2023-12-28T10:59:20;98700.86;;;18.57;44.26
66801;BME280;53703;50.326;19.122;2023-12-28T11:01:54;98693.52;;;18.54;44.33
66801;BME280;53703;50.326;19.122;2023-12-28T11:04:42;98692.38;;;18.53;44.30
66801;BME280;53703;50.326;19.122;2023-12-28T11:07:19;98698.85;;;18.56;44.32
66801;BME280;53703;50.326;19.122;2023-12-28T11:09:54;98696.66;;;18.56;44.16
66801;BME280;53703;50.326;19.122;2023-12-28T11:12:28;98688.11;;;18.53;44.38
66801;BME280;53703;50.326;19.122;2023-12-28T11:15:04;98681.33;;;18.62;44.29
66801;BME280;53703;50.326;19.122;2023-12-28T11:17:42;98683.71;;;18.56;44.56
66801;BME280;53703;50.326;19.122;2023-12-28T11:20:17;98684.96;;;18.59;45.27
66801;BME280;53703;50.326;19.122;2023-12-28T11:22:52;98685.27;;;18.65;45.49
66801;BME280;53703;50.326;19.122;2023-12-28T11:25:32;98685.13;;;18.68;46.66
66801;BME280;53703;50.326;19.122;2023-12-28T11:28:13;98687.63;;;18.67;48.65
66801;BME280;53703;50.326;19.122;2023-12-28T11:30:48;98690.52;;;18.62;48.16
66801;BME280;53703;50.326;19.122;2023-12-28T11:33:22;98683.92;;;18.58;47.67
66801;BME280;53703;50.326;19.122;2023-12-28T11:35:56;98682.75;;;18.62;46.94
66801;BME280;53703;50.326;19.122;2023-12-28T11:38:31;98684.48;;;18.59;46.72
66801;BME280;53703;50.326;19.122;2023-12-28T11:41:07;98685.97;;;18.58;46.43
66801;BME280;53703;50.326;19.122;2023-12-28T11:43:40;98683.02;;;18.60;46.22
66801;BME280;53703;50.326;19.122;2023-12-28T11:46:15;98679.35;;;18.56;46.29
66801;BME280;53703;50.326;19.122;2023-12-28T11:48:51;98675.79;;;18.62;45.98
66801;BME280;53703;50.326;19.122;2023-12-28T11:51:26;98680.90;;;18.58;46.00
66801;BME280;53703;50.326;19.122;2023-12-28T11:54:00;98686.66;;;18.54;45.84
66801;BME280;53703;50.326;19.122;2023-12-28T11:56:35;98683.08;;;18.56;45.78
66801;BME280;53703;50.326;19.122;2023-12-28T11:59:09;98678.36;;;18.54;45.68
66801;BME280;53703;50.326;19.122;2023-12-28T12:01:43;98672.38;;;18.58;45.60
66801;BME280;53703;50.326;19.122;2023-12-28T12:04:17;98675.38;;;18.55;45.67
66801;BME280;53703;50.326;19.122;2023-12-28T12:06:50;98678.54;;;18.52;45.68
66801;BME280;53703;50.326;19.122;2023-12-28T12:09:25;98685.56;;;18.55;45.61
66801;BME280;53703;50.326;19.122;2023-12-28T12:11:59;98679.00;;;18.51;45.45
66801;BME280;53703;50.326;19.122;2023-12-28T12:14:32;98677.80;;;18.51;45.61
66801;BME280;53703;50.326;19.122;2023-12-28T12:17:07;98669.29;;;18.49;45.46
66801;BME280;53703;50.326;19.122;2023-12-28T12:19:41;98679.54;;;18.48;45.35
66801;BME280;53703;50.326;19.122;2023-12-28T12:22:15;98679.52;;;18.48;45.42
66801;BME280;53703;50.326;19.122;2023-12-28T12:24:52;98673.33;;;18.47;45.50
66801;BME280;53703;50.326;19.122;2023-12-28T12:27:26;98678.83;;;18.48;45.31
66801;BME280;53703;50.326;19.122;2023-12-28T12:30:00;98674.38;;;18.50;45.15
66801;BME280;53703;50.326;19.122;2023-12-28T12:32:34;98669.30;;;18.46;45.35
66801;BME280;53703;50.326;19.122;2023-12-28T12:35:10;98673.48;;;18.43;45.17
66801;BME280;53703;50.326;19.122;2023-12-28T12:37:44;98684.65;;;18.53;45.04
66801;BME280;53703;50.326;19.122;2023-12-28T12:40:19;98689.41;;;18.45;45.11
66801;BME280;53703;50.326;19.122;2023-12-28T12:42:56;98675.71;;;18.47;45.07
66801;BME280;53703;50.326;19.122;2023-12-28T12:45:30;98671.48;;;18.46;45.09
66801;BME280;53703;50.326;19.122;2023-12-28T12:48:05;98669.36;;;18.43;45.16
66801;BME280;53703;50.326;19.122;2023-12-28T12:50:39;98678.52;;;18.43;45.07
66801;BME280;53703;50.326;19.122;2023-12-28T12:53:12;98684.52;;;18.40;45.07
66801;BME280;53703;50.326;19.122;2023-12-28T12:55:46;98682.80;;;18.38;45.07
66801;BME280;53703;50.326;19.122;2023-12-28T12:58:20;98680.55;;;18.34;45.23
66801;BME280;53703;50.326;19.122;2023-12-28T13:00:54;98671.66;;;18.38;45.06
66801;BME280;53703;50.326;19.122;2023-12-28T13:03:31;98667.79;;;18.37;45.06
66801;BME280;53703;50.326;19.122;2023-12-28T13:06:05;98663.25;;;18.30;45.28
66801;BME280;53703;50.326;19.122;2023-12-28T13:08:39;98662.29;;;18.36;45.12
66801;BME280;53703;50.326;19.122;2023-12-28T13:11:14;98655.67;;;18.39;45.15
66801;BME280;53703;50.326;19.122;2023-12-28T13:13:47;98647.30;;;18.36;45.08
66801;BME280;53703;50.326;19.122;2023-12-28T13:16:21;98644.70;;;18.48;45.04
66801;BME280;53703;50.326;19.122;2023-12-28T13:18:55;98633.70;;;18.50;44.88
66801;BME280;53703;50.326;19.122;2023-12-28T13:21:29;98633.17;;;18.54;45.02
66801;BME280;53703;50.326;19.122;2023-12-28T13:24:02;98648.64;;;18.33;45.48
66801;BME280;53703;50.326;19.122;2023-12-28T13:26:36;98653.27;;;18.34;45.52
66801;BME280;53703;50.326;19.122;2023-12-28T13:29:09;98648.64;;;18.33;45.51